Domov               UVHVVR             MKGP            O straneh              
ZDRAVSTVENO VARSTVO RASTLIN
  MREŽA AGROMET. POSTAJ
 ► PROGNOSTIČNA OBVESTILA
AGROMETEOROLOŠKI PODATKI -
ARSO
OBVLADOVANJE TVEGANJ ZARADI
NEUGODNIH VREMENSKIH RAZMER
  ► NARAVNE NESREČE
  ► SUŠA/MOČA
  ► NAMAKANJE
  ► ŽLED (gozdarstvo)
KARTOGRAFSKI PRIKAZI
SPLETNE POVEZAVE
PROJEKTI IN PUBLIKACIJE

AGROMETEOROLOŠKA MREŽA: VREMENSKE POSTAJE IN FENOLOŠKA OPAZOVANJA

Pregled podatkov za lokacijo Vipolže, meteorološka postaja 44544

Pregled senzorjev na lokaciji

ID Ime Zadnja
vrednost
Datum
zadnje
spremembe
Tip
senzorja
3083 Temperatura 2 m ( °C) 11,62 °C 23.8.2017 05:30 50YA
3084 Relativna vlaga 2 m (% RH) 99,28 % RH 23.8.2017 05:30 50YA
3085 Omočenost lista (U) 2 U 23.8.2017 05:30 A730WET
3086 Padavine 0.2 mm (mm) 0 mm 23.8.2017 05:30 Rain-O-Matic
4029 Hitrost vetra (km/h) 0,04 km/h 23.8.2017 05:30 Generic 200 km/h
4030 Smer vetra (°) 65,39 ° 23.8.2017 05:30 Generic 0 - 360

Pregled podatkov zadnjih 24 ur

Zap.
št.
Datum in čas Vipolže
Hitrost
vetra
Omočenost
lista
Padavine
0.2
mm
Relativna
vlaga
2
m
Smer
vetra
Temperatura
2
m
0 23.8.2017 04:30 0,04 2 0 99,28 65,39 11,62
1 23.8.2017 04:00 0 2 0 98,95 91,22 11,49
2 23.8.2017 03:30 0 2 0 98,88 91,22 11,91
3 23.8.2017 03:00 0 2 0 98,84 91,22 12,23
4 23.8.2017 02:30 0 2 0 98,46 84,3 12,06
5 23.8.2017 02:00 0 1 0 98,05 35,37 12,05
6 23.8.2017 01:30 0 1 0 97,89 35,37 12,55
7 23.8.2017 01:00 0 1 0 97,5 35,37 12,58
8 23.8.2017 00:30 0 1 0 97,08 35,51 12,92
9 23.8.2017 00:00 0,45 1 0 96,61 66,51 13,04
10 22.8.2017 23:30 0,19 1 0 95,89 63,7 13,24
11 22.8.2017 23:00 0,19 1 0 95,02 57,25 13,51
12 22.8.2017 22:30 0,05 1 0 94,3 41,92 13,79
13 22.8.2017 22:00 0,28 1 0 92,85 54,8 14,21
14 22.8.2017 21:30 0,89 1 0 92,03 56,32 14,7
15 22.8.2017 21:00 0,36 0 0 90,71 55,74 15,12
16 22.8.2017 20:30 1,13 0 0 89,63 43,08 15,74
17 22.8.2017 20:00 0,32 0 0 85,78 59,05 16,63
18 22.8.2017 19:30 1,47 0 0 81,23 59,15 17,95
19 22.8.2017 19:00 1,44 0 0 70,23 58,57 20,59
20 22.8.2017 18:30 0,27 0 0 55,48 344,25 23,71
21 22.8.2017 18:00 0,83 0 0 48,27 331,58 24,99
22 22.8.2017 17:30 1,48 0 0 46,97 316,59 25,79
23 22.8.2017 17:00 1,87 0 0 45,9 337,58 26,13
24 22.8.2017 16:30 2,32 0 0 45,28 317,76 26,66
25 22.8.2017 16:00 3,55 0 0 43,9 309,82 26,63
26 22.8.2017 15:30 2,84 0 0 43,32 327,55 27,05
27 22.8.2017 15:00 2,81 0 0 42,89 339,31 26,9
28 22.8.2017 14:30 2,29 0 0 43,35 326,63 26,94
29 22.8.2017 14:00 1,8 0 0 43,38 8,73 26,55
30 22.8.2017 13:30 2,56 0 0 43,9 277,88 26,07
31 22.8.2017 13:00 1,38 0 0 43,17 323,14 25,77
32 22.8.2017 12:30 1,75 0 0 44,81 304,74 25,24
33 22.8.2017 12:00 1,44 0 0 44,76 298,98 24,88
34 22.8.2017 11:30 1,25 0 0 43,74 313,28 24,47
35 22.8.2017 11:00 0,35 0 0 44,12 32,16 24,23
36 22.8.2017 10:30 0,47 0 0 44,78 283,05 23,7
37 22.8.2017 10:00 0,52 0 0 47,94 225,96 23,16
38 22.8.2017 09:30 0,66 0 0 45,45 300,75 23,63
39 22.8.2017 09:00 2,32 0 0 51,6 122,81 23,07
40 22.8.2017 08:30 1,11 0 0 54,21 97,15 22,01
41 22.8.2017 08:00 1,22 0 0 58,72 116,32 20,43
42 22.8.2017 07:30 0,04 0 0 67,25 52,55 18,27
43 22.8.2017 07:00 0,13 0 0 76,58 27,93 15,23
44 22.8.2017 06:30 1,62 0 0 86,98 48,47 12,66
© 2011 Ministrstvo za kmetijstvo, gozdarstvo in prehrano. Vse pravice pridržane.